PLT2103 SBPA-SBFL
Flight info
| Callsign | PLT2103 |
|---|---|
| Flight time | 0h 38m |
| Altitude | 31000 |
| Route | ANLER UM540 DADMO |
| Aircraft | A320/M-SDE3FGHIRWY/LB1 |
Departure
| Time | 2026-05-08 23:32 |
|---|---|
| Airport | Porto Alegre-Salgado Filho International Airport (SBPA) |
Arrival
| Time | 2026-05-09 00:10 |
|---|---|
| Airport | Hercílio Luz International Airport (SBFL) |
| Time | Latitude | Longitude | Altitude | Speed | Heading |
|---|---|---|---|---|---|
| 2026-05-08 22:59 | -29.99101 | -51.17713 | 20 ft | 0 kts | 13° |
| 2026-05-08 23:15 | -29.99120 | -51.17719 | 20 ft | 4 kts | 21° |
| 2026-05-08 23:16 | -29.99144 | -51.17733 | 19 ft | 4 kts | 40° |
| 2026-05-08 23:16 | -29.99161 | -51.17755 | 19 ft | 4 kts | 70° |
| 2026-05-08 23:16 | -29.99164 | -51.17776 | 19 ft | 0 kts | 99° |
| 2026-05-08 23:22 | -29.99165 | -51.17769 | 19 ft | 5 kts | 99° |
| 2026-05-08 23:22 | -29.99183 | -51.17715 | 19 ft | 0 kts | 137° |
| 2026-05-08 23:23 | -29.99187 | -51.17710 | 19 ft | 3 kts | 137° |
| 2026-05-08 23:23 | -29.99219 | -51.17690 | 19 ft | 8 kts | 153° |
| 2026-05-08 23:24 | -29.99264 | -51.17624 | 19 ft | 14 kts | 96° |
| 2026-05-08 23:24 | -29.99264 | -51.17492 | 19 ft | 20 kts | 92° |
| 2026-05-08 23:24 | -29.99270 | -51.17311 | 19 ft | 25 kts | 92° |
| 2026-05-08 23:24 | -29.99277 | -51.17085 | 19 ft | 31 kts | 92° |
| 2026-05-08 23:25 | -29.99280 | -51.16864 | 19 ft | 20 kts | 89° |
| 2026-05-08 23:25 | -29.99281 | -51.16681 | 19 ft | 25 kts | 92° |
| 2026-05-08 23:25 | -29.99287 | -51.16465 | 19 ft | 29 kts | 92° |
| 2026-05-08 23:25 | -29.99291 | -51.16321 | 19 ft | 11 kts | 91° |
| 2026-05-08 23:26 | -29.99294 | -51.16255 | 19 ft | 0 kts | 99° |
| 2026-05-08 23:26 | -29.99294 | -51.16253 | 19 ft | 1 kts | 100° |
| 2026-05-08 23:27 | -29.99327 | -51.16230 | 21 ft | 11 kts | 171° |
| 2026-05-08 23:27 | -29.99379 | -51.16231 | 20 ft | 0 kts | 181° |
| 2026-05-08 23:29 | -29.99417 | -51.16231 | 22 ft | 14 kts | 179° |
| 2026-05-08 23:30 | -29.99485 | -51.16190 | 22 ft | 10 kts | 78° |
| 2026-05-08 23:30 | -29.99484 | -51.16060 | 21 ft | 20 kts | 96° |
| 2026-05-08 23:30 | -29.99508 | -51.15943 | 21 ft | 14 kts | 94° |
| 2026-05-08 23:30 | -29.99479 | -51.15948 | 21 ft | 10 kts | 263° |
| 2026-05-08 23:31 | -29.99485 | -51.16033 | 21 ft | 13 kts | 271° |
| 2026-05-08 23:31 | -29.99479 | -51.16249 | 22 ft | 61 kts | 271° |
| 2026-05-08 23:31 | -29.99462 | -51.17067 | 17 ft | 138 kts | 271° |
| 2026-05-08 23:31 | -29.99435 | -51.18360 | 225 ft | 174 kts | 271° |
| 2026-05-08 23:32 | -29.99420 | -51.19761 | 1002 ft | 175 kts | 270° |
| 2026-05-08 23:32 | -29.99400 | -51.21161 | 1771 ft | 175 kts | 271° |
| 2026-05-08 23:32 | -29.99379 | -51.22115 | 2112 ft | 186 kts | 272° |
| 2026-05-08 23:32 | -29.99340 | -51.23703 | 2536 ft | 208 kts | 272° |
| 2026-05-08 23:33 | -29.99300 | -51.25371 | 3458 ft | 207 kts | 272° |
| 2026-05-08 23:33 | -29.99143 | -51.27014 | 4368 ft | 208 kts | 292° |
| 2026-05-08 23:33 | -29.98185 | -51.28243 | 5146 ft | 220 kts | 330° |
| 2026-05-08 23:33 | -29.96601 | -51.28661 | 5614 ft | 249 kts | 353° |
| 2026-05-08 23:34 | -29.94822 | -51.28606 | 6453 ft | 259 kts | 359° |
| 2026-05-08 23:34 | -29.93014 | -51.28408 | 7429 ft | 263 kts | 0° |
| 2026-05-08 23:34 | -29.91179 | -51.28196 | 8349 ft | 267 kts | 359° |
| 2026-05-08 23:34 | -29.89317 | -51.28013 | 9245 ft | 270 kts | 358° |
| 2026-05-08 23:35 | -29.87433 | -51.27866 | 10132 ft | 273 kts | 357° |
| 2026-05-08 23:35 | -29.85465 | -51.27751 | 10597 ft | 295 kts | 356° |
| 2026-05-08 23:35 | -29.83334 | -51.27656 | 10898 ft | 318 kts | 356° |
| 2026-05-08 23:35 | -29.81078 | -51.27563 | 11493 ft | 328 kts | 357° |
| 2026-05-08 23:36 | -29.78776 | -51.27468 | 12277 ft | 333 kts | 357° |
| 2026-05-08 23:36 | -29.76456 | -51.27370 | 13079 ft | 336 kts | 356° |
| 2026-05-08 23:36 | -29.74108 | -51.27272 | 13881 ft | 339 kts | 356° |
| 2026-05-08 23:36 | -29.71743 | -51.26919 | 14634 ft | 352 kts | 9° |
| 2026-05-08 23:37 | -29.69492 | -51.25663 | 15383 ft | 372 kts | 28° |
| 2026-05-08 23:37 | -29.67656 | -51.23452 | 16062 ft | 397 kts | 49° |
| 2026-05-08 23:37 | -29.66324 | -51.20612 | 16753 ft | 407 kts | 54° |
| 2026-05-08 23:37 | -29.65040 | -51.17702 | 17390 ft | 411 kts | 54° |
| 2026-05-08 23:38 | -29.63744 | -51.14745 | 17978 ft | 417 kts | 54° |
| 2026-05-08 23:38 | -29.62436 | -51.11764 | 18593 ft | 421 kts | 54° |
| 2026-05-08 23:38 | -29.61103 | -51.08743 | 19220 ft | 424 kts | 54° |
| 2026-05-08 23:38 | -29.59757 | -51.05714 | 19843 ft | 428 kts | 54° |
| 2026-05-08 23:39 | -29.58395 | -51.02661 | 20487 ft | 431 kts | 54° |
| 2026-05-08 23:39 | -29.57021 | -50.99584 | 21086 ft | 434 kts | 53° |
| 2026-05-08 23:39 | -29.55639 | -50.96490 | 21668 ft | 437 kts | 54° |
| 2026-05-08 23:39 | -29.54247 | -50.93378 | 22212 ft | 440 kts | 53° |
| 2026-05-08 23:40 | -29.52841 | -50.90233 | 22742 ft | 444 kts | 54° |
| 2026-05-08 23:40 | -29.51427 | -50.87068 | 23243 ft | 447 kts | 53° |
| 2026-05-08 23:40 | -29.50001 | -50.83879 | 23737 ft | 451 kts | 53° |
| 2026-05-08 23:40 | -29.48565 | -50.80664 | 24199 ft | 454 kts | 54° |
| 2026-05-08 23:41 | -29.47115 | -50.77426 | 24650 ft | 457 kts | 53° |
| 2026-05-08 23:41 | -29.45659 | -50.74175 | 25068 ft | 461 kts | 53° |
| 2026-05-08 23:41 | -29.44190 | -50.70899 | 25464 ft | 463 kts | 54° |
| 2026-05-08 23:41 | -29.42707 | -50.67600 | 25841 ft | 467 kts | 53° |
| 2026-05-08 23:42 | -29.41213 | -50.64276 | 26202 ft | 471 kts | 54° |
| 2026-05-08 23:42 | -29.39704 | -50.60927 | 26578 ft | 474 kts | 54° |
| 2026-05-08 23:42 | -29.38182 | -50.57561 | 26961 ft | 477 kts | 53° |
| 2026-05-08 23:42 | -29.36650 | -50.54173 | 27303 ft | 480 kts | 53° |
| 2026-05-08 23:43 | -29.35110 | -50.50761 | 27663 ft | 483 kts | 53° |
| 2026-05-08 23:43 | -29.33558 | -50.47329 | 27986 ft | 486 kts | 53° |
| 2026-05-08 23:43 | -29.31994 | -50.43881 | 28322 ft | 489 kts | 53° |
| 2026-05-08 23:43 | -29.30419 | -50.40416 | 28651 ft | 491 kts | 52° |
| 2026-05-08 23:44 | -29.28609 | -50.37151 | 28936 ft | 481 kts | 43° |
| 2026-05-08 23:44 | -29.26418 | -50.34312 | 29232 ft | 471 kts | 33° |
| 2026-05-08 23:44 | -29.23965 | -50.31974 | 29519 ft | 462 kts | 26° |
| 2026-05-08 23:44 | -29.21374 | -50.29776 | 29783 ft | 465 kts | 26° |
| 2026-05-08 23:45 | -29.18735 | -50.27535 | 30061 ft | 467 kts | 26° |
| 2026-05-08 23:45 | -29.16160 | -50.25349 | 30312 ft | 469 kts | 26° |
| 2026-05-08 23:45 | -29.13542 | -50.23117 | 30630 ft | 469 kts | 26° |
| 2026-05-08 23:45 | -29.10929 | -50.20886 | 30844 ft | 468 kts | 26° |
| 2026-05-08 23:46 | -29.05798 | -50.16493 | 30889 ft | 456 kts | 26° |
| 2026-05-08 23:46 | -29.00735 | -50.12181 | 30889 ft | 454 kts | 26° |
| 2026-05-08 23:47 | -28.95665 | -50.07893 | 30892 ft | 453 kts | 26° |
| 2026-05-08 23:47 | -28.90589 | -50.03591 | 30886 ft | 455 kts | 26° |
| 2026-05-08 23:48 | -28.85518 | -49.99289 | 30879 ft | 454 kts | 27° |
| 2026-05-08 23:48 | -28.80444 | -49.94997 | 30882 ft | 453 kts | 27° |
| 2026-05-08 23:49 | -28.75380 | -49.90724 | 30871 ft | 453 kts | 27° |
| 2026-05-08 23:49 | -28.70305 | -49.86442 | 30870 ft | 454 kts | 27° |
| 2026-05-08 23:50 | -28.65232 | -49.82159 | 30865 ft | 454 kts | 27° |
| 2026-05-08 23:50 | -28.60154 | -49.77875 | 30857 ft | 455 kts | 27° |
| 2026-05-08 23:51 | -28.55064 | -49.73587 | 30858 ft | 455 kts | 27° |
| 2026-05-08 23:51 | -28.49965 | -49.69298 | 30860 ft | 456 kts | 27° |
| 2026-05-08 23:52 | -28.44871 | -49.65023 | 30863 ft | 456 kts | 27° |
| 2026-05-08 23:52 | -28.39774 | -49.60743 | 30863 ft | 456 kts | 27° |
| 2026-05-08 23:53 | -28.34677 | -49.56466 | 30859 ft | 456 kts | 27° |
| 2026-05-08 23:53 | -28.29568 | -49.52200 | 30544 ft | 456 kts | 27° |
| 2026-05-08 23:54 | -28.27009 | -49.50063 | 30288 ft | 457 kts | 27° |
| 2026-05-08 23:54 | -28.24445 | -49.47922 | 30037 ft | 458 kts | 27° |
| 2026-05-08 23:54 | -28.21874 | -49.45773 | 29679 ft | 460 kts | 27° |
| 2026-05-08 23:55 | -28.16733 | -49.41483 | 28202 ft | 457 kts | 28° |
| 2026-05-08 23:55 | -28.14179 | -49.39354 | 27461 ft | 455 kts | 28° |
| 2026-05-08 23:55 | -28.11637 | -49.37237 | 26772 ft | 452 kts | 28° |
| 2026-05-08 23:55 | -28.09116 | -49.35135 | 26050 ft | 449 kts | 28° |
| 2026-05-08 23:56 | -28.06603 | -49.33051 | 25331 ft | 446 kts | 28° |
| 2026-05-08 23:56 | -28.04104 | -49.30999 | 24632 ft | 443 kts | 28° |
| 2026-05-08 23:56 | -28.01612 | -49.28964 | 23926 ft | 440 kts | 28° |
| 2026-05-08 23:56 | -27.99142 | -49.26950 | 23246 ft | 437 kts | 28° |
| 2026-05-08 23:57 | -27.96678 | -49.24939 | 22584 ft | 434 kts | 28° |
| 2026-05-08 23:57 | -27.94245 | -49.22954 | 21973 ft | 430 kts | 29° |
| 2026-05-08 23:57 | -27.91828 | -49.20979 | 21366 ft | 426 kts | 29° |
| 2026-05-08 23:57 | -27.89444 | -49.19030 | 20811 ft | 420 kts | 29° |
| 2026-05-08 23:58 | -27.87095 | -49.17108 | 20259 ft | 415 kts | 29° |
| 2026-05-08 23:58 | -27.84766 | -49.15206 | 19724 ft | 411 kts | 29° |
| 2026-05-08 23:58 | -27.82476 | -49.13296 | 19183 ft | 408 kts | 31° |
| 2026-05-08 23:58 | -27.80248 | -49.11321 | 18646 ft | 405 kts | 32° |
| 2026-05-08 23:59 | -27.78073 | -49.09313 | 18085 ft | 404 kts | 34° |
| 2026-05-08 23:59 | -27.75919 | -49.07290 | 17530 ft | 401 kts | 34° |
| 2026-05-08 23:59 | -27.73781 | -49.05279 | 16946 ft | 399 kts | 33° |
| 2026-05-08 23:59 | -27.71653 | -49.03294 | 16377 ft | 395 kts | 34° |
| 2026-05-09 00:00 | -27.69533 | -49.01338 | 15790 ft | 392 kts | 33° |
| 2026-05-09 00:00 | -27.67480 | -48.99376 | 15209 ft | 394 kts | 39° |
| 2026-05-09 00:00 | -27.65804 | -48.96902 | 14610 ft | 402 kts | 56° |
| 2026-05-09 00:00 | -27.64777 | -48.93898 | 13997 ft | 410 kts | 73° |
| 2026-05-09 00:01 | -27.64561 | -48.90719 | 13451 ft | 415 kts | 91° |
| 2026-05-09 00:01 | -27.64963 | -48.87500 | 12735 ft | 416 kts | 96° |
| 2026-05-09 00:01 | -27.65421 | -48.84315 | 12193 ft | 403 kts | 96° |
| 2026-05-09 00:01 | -27.65883 | -48.81198 | 11348 ft | 390 kts | 96° |
| 2026-05-09 00:02 | -27.66404 | -48.78298 | 10745 ft | 377 kts | 102° |
| 2026-05-09 00:02 | -27.67337 | -48.75607 | 10369 ft | 360 kts | 115° |
| 2026-05-09 00:02 | -27.68577 | -48.73210 | 10239 ft | 348 kts | 120° |
| 2026-05-09 00:02 | -27.69820 | -48.70904 | 9986 ft | 340 kts | 119° |
| 2026-05-09 00:03 | -27.71036 | -48.68637 | 9755 ft | 335 kts | 118° |
| 2026-05-09 00:03 | -27.72241 | -48.66389 | 9622 ft | 334 kts | 119° |
| 2026-05-09 00:03 | -27.73449 | -48.64143 | 9493 ft | 335 kts | 118° |
| 2026-05-09 00:03 | -27.74662 | -48.61895 | 9131 ft | 335 kts | 119° |
| 2026-05-09 00:04 | -27.75873 | -48.59651 | 8767 ft | 332 kts | 119° |
| 2026-05-09 00:04 | -27.77077 | -48.57418 | 8350 ft | 333 kts | 119° |
| 2026-05-09 00:04 | -27.78276 | -48.55188 | 7871 ft | 335 kts | 119° |
| 2026-05-09 00:04 | -27.79495 | -48.52923 | 7378 ft | 335 kts | 119° |
| 2026-05-09 00:05 | -27.80704 | -48.50679 | 6891 ft | 335 kts | 119° |
| 2026-05-09 00:05 | -27.81911 | -48.48437 | 6404 ft | 334 kts | 119° |
| 2026-05-09 00:05 | -27.83077 | -48.46171 | 5915 ft | 331 kts | 111° |
| 2026-05-09 00:05 | -27.83522 | -48.43706 | 5444 ft | 316 kts | 80° |
| 2026-05-09 00:06 | -27.82865 | -48.41451 | 4976 ft | 295 kts | 47° |
| 2026-05-09 00:06 | -27.81424 | -48.39940 | 4563 ft | 278 kts | 28° |
| 2026-05-09 00:06 | -27.79807 | -48.38849 | 4144 ft | 272 kts | 22° |
| 2026-05-09 00:06 | -27.78126 | -48.37927 | 3708 ft | 264 kts | 14° |
| 2026-05-09 00:07 | -27.76371 | -48.37896 | 3322 ft | 250 kts | 339° |
| 2026-05-09 00:07 | -27.75008 | -48.39010 | 2996 ft | 240 kts | 311° |
| 2026-05-09 00:07 | -27.74084 | -48.40507 | 2667 ft | 226 kts | 303° |
| 2026-05-09 00:07 | -27.73345 | -48.41993 | 2350 ft | 207 kts | 300° |
| 2026-05-09 00:08 | -27.72694 | -48.43362 | 2060 ft | 192 kts | 300° |
| 2026-05-09 00:08 | -27.72059 | -48.44658 | 1820 ft | 180 kts | 301° |
| 2026-05-09 00:08 | -27.71455 | -48.45852 | 1544 ft | 170 kts | 301° |
| 2026-05-09 00:08 | -27.70880 | -48.46968 | 1310 ft | 160 kts | 301° |
| 2026-05-09 00:09 | -27.70332 | -48.48020 | 1087 ft | 151 kts | 301° |
| 2026-05-09 00:09 | -27.69825 | -48.48988 | 906 ft | 139 kts | 301° |
| 2026-05-09 00:09 | -27.69338 | -48.49912 | 714 ft | 136 kts | 301° |
| 2026-05-09 00:09 | -27.68854 | -48.50822 | 524 ft | 134 kts | 301° |
| 2026-05-09 00:10 | -27.68383 | -48.51729 | 326 ft | 134 kts | 300° |
| 2026-05-09 00:10 | -27.67909 | -48.52634 | 138 ft | 134 kts | 302° |
| 2026-05-09 00:10 | -27.67437 | -48.53525 | 26 ft | 126 kts | 301° |
| 2026-05-09 00:10 | -27.67118 | -48.54122 | 26 ft | 46 kts | 301° |
| 2026-05-09 00:11 | -27.67074 | -48.54203 | 27 ft | 1 kts | 300° |
| 2026-05-09 00:11 | -27.67045 | -48.54263 | 28 ft | 17 kts | 299° |
| 2026-05-09 00:11 | -27.66977 | -48.54374 | 28 ft | 15 kts | 304° |
| 2026-05-09 00:11 | -27.66940 | -48.54444 | 28 ft | 9 kts | 293° |
| 2026-05-09 00:12 | -27.66937 | -48.54462 | 28 ft | 2 kts | 275° |
| 2026-05-09 00:12 | -27.66943 | -48.54490 | 28 ft | 5 kts | 242° |
| 2026-05-09 00:12 | -27.66985 | -48.54527 | 27 ft | 10 kts | 211° |
| 2026-05-09 00:12 | -27.67060 | -48.54575 | 27 ft | 13 kts | 210° |
| 2026-05-09 00:13 | -27.67109 | -48.54607 | 27 ft | 10 kts | 208° |
| 2026-05-09 00:13 | -27.67165 | -48.54617 | 27 ft | 10 kts | 167° |
| 2026-05-09 00:13 | -27.67225 | -48.54553 | 27 ft | 13 kts | 123° |
| 2026-05-09 00:13 | -27.67250 | -48.54524 | 27 ft | 4 kts | 166° |
| 2026-05-09 00:14 | -27.67270 | -48.54529 | 27 ft | 1 kts | 202° |
| 2026-05-09 00:14 | -27.67275 | -48.54533 | 27 ft | 1 kts | 210° |
| 2026-05-09 00:14 | -27.67278 | -48.54535 | 27 ft | 0 kts | 211° |
| 2026-05-09 00:14 | -27.67285 | -48.54539 | 27 ft | 0 kts | 210° |
| 2026-05-09 00:15 | -27.67286 | -48.54540 | 27 ft | 0 kts | 211° |